Home > Products > Valid Products > MTR

000
SAUS46 KSTO 300953
MTRBLU
METAR KBLU 300952Z AUTO 00000KT 10SM CLR 15/M01 A3019 RMK AO2 SLP144
T01501006





000
SAUS46 KSTO 300853
MTRBLU
METAR KBLU 300852Z AUTO 04006KT 10SM CLR 14/M01 A3020 RMK AO2 SLP154
T01441011 58007





000
SAUS46 KSTO 300753
MTRBLU
METAR KBLU 300752Z AUTO 03004KT 10SM CLR 14/00 A3021 RMK AO2 SLP158
T01390000 402000117





000
SAUS46 KSTO 300653
MTRBLU
METAR KBLU 300652Z AUTO 01003KT 10SM CLR 14/M01 A3022 RMK AO2 SLP162
T01391006





000
SAUS46 KSTO 300653
MTRBLU
METAR KBLU 300652Z AUTO 01003KT 10SM CLR 14/M01 A3022 RMK AO2 SLP162
T01391006





000
SAUS46 KSTO 300553
MTRBLU
METAR KBLU 300552Z AUTO 00000KT 10SM CLR 14/02 A3023 RMK AO2 SLP168
T01390022 10194 20139 51007





000
SAUS46 KSTO 300553
MTRBLU
METAR KBLU 300552Z AUTO 00000KT 10SM CLR 14/02 A3023 RMK AO2 SLP168
T01390022 10194 20139 51007





000
SAUS46 KSTO 300453
MTRBLU
METAR KBLU 300452Z AUTO 00000KT 10SM CLR 14/02 A3023 RMK AO2 SLP165
T01440017





000
SAUS46 KSTO 300353
MTRBLU
METAR KBLU 300352Z AUTO 07003KT 10SM CLR 15/02 A3022 RMK AO2 SLP165
T01500017





000
SAUS46 KSTO 300353
MTRBLU
METAR KBLU 300352Z AUTO 07003KT 10SM CLR 15/02 A3022 RMK AO2 SLP165
T01500017





000
SAUS46 KSTO 300253
MTRBLU
METAR KBLU 300252Z AUTO 03003KT 10SM CLR 14/01 A3020 RMK AO2 SLP166
T01440011 53003





000
SAUS46 KSTO 300153
MTRBLU
METAR KBLU 300152Z AUTO 27004KT 10SM CLR 17/02 A3020 RMK AO2 SLP161
T01670022





000
SAUS46 KSTO 300053
MTRBLU
METAR KBLU 300052Z AUTO 24008KT 10SM CLR 18/02 A3019 RMK AO2 SLP157
T01780017





000
SAUS46 KSTO 300053
MTRBLU
METAR KBLU 300052Z AUTO 24008KT 10SM CLR 18/02 A3019 RMK AO2 SLP157
T01780017





000
SAUS46 KSTO 292353
MTRBLU
METAR KBLU 292352Z AUTO 24009KT 210V280 10SM CLR 19/01 A3019 RMK AO2
SLP153 T01940006 10200 20172 56008





000
SAUS46 KSTO 292353
MTRBLU
METAR KBLU 292352Z AUTO 24009KT 210V280 10SM CLR 19/01 A3019 RMK AO2
SLP153 T01940006 10200 20172 56008





000
SAUS46 KSTO 292253
MTRBLU
METAR KBLU 292252Z AUTO 26008KT 10SM CLR 20/M01 A3019 RMK AO2 SLP151
T02001011





000
SAUS46 KSTO 292253
MTRBLU
METAR KBLU 292252Z AUTO 26008KT 10SM CLR 20/M01 A3019 RMK AO2 SLP151
T02001011





000
SAUS46 KSTO 292153
MTRBLU
METAR KBLU 292152Z AUTO 24007KT 220V280 10SM CLR 20/M03 A3020 RMK
AO2 SLP155 T02001028





000
SAUS46 KSTO 292053
MTRBLU
METAR KBLU 292052Z AUTO 27009KT 10SM CLR 19/M02 A3022 RMK AO2 SLP160
T01891017 58010





000
SAUS46 KSTO 291953
MTRBLU
METAR KBLU 291952Z AUTO 29006KT 10SM CLR 19/M04 A3023 RMK AO2 SLP167
T01891044





000
SAUS46 KSTO 291953
MTRBLU
METAR KBLU 291952Z AUTO 29006KT 10SM CLR 19/M04 A3023 RMK AO2 SLP167
T01891044





000
SAUS46 KSTO 291853
MTRBLU
METAR KBLU 291852Z AUTO VRB05KT 10SM CLR 18/M04 A3024 RMK AO2 SLP171
T01831039





000
SAUS46 KSTO 291853
MTRBLU
METAR KBLU 291852Z AUTO VRB05KT 10SM CLR 18/M04 A3024 RMK AO2 SLP171
T01831039





000
SAUS46 KSTO 291753
MTRBLU
METAR KBLU 291752Z AUTO 27006KT 10SM CLR 17/M07 A3026 RMK AO2 SLP178
T01721067 10183 20117 53003





000
SAUS46 KSTO 291753
MTRBLU
METAR KBLU 291752Z AUTO 27006KT 10SM CLR 17/M07 A3026 RMK AO2 SLP178
T01721067 10183 20117 53003





000
SAUS46 KSTO 291653
MTRBLU
METAR KBLU 291652Z AUTO 00000KT 10SM CLR 18/M08 A3025 RMK AO2 SLP176
T01781083





000
SAUS46 KSTO 291553
MTRBLU
METAR KBLU 291552Z AUTO 00000KT 10SM CLR 16/M06 A3025 RMK AO2 SLP178
T01561061





000
SAUS46 KSTO 291453
MTRBLU
METAR KBLU 291452Z AUTO 07003KT 10SM CLR 14/M09 A3024 RMK AO2 SLP181
T01441094 53009





000
SAUS46 KSTO 291353
MTRBLU
METAR KBLU 291352Z AUTO 06004KT 10SM CLR 13/M12 A3024 RMK AO2 SLP174
T01281122





000
SAUS46 KSTO 291353
MTRBLU
METAR KBLU 291352Z AUTO 06004KT 10SM CLR 13/M12 A3024 RMK AO2 SLP174
T01281122





000
SAUS46 KSTO 291253
MTRBLU
METAR KBLU 291252Z AUTO 04004KT 10SM CLR 13/M12 A3022 RMK AO2 SLP166
T01331122





000
SAUS46 KSTO 291253
MTRBLU
METAR KBLU 291252Z AUTO 04004KT 10SM CLR 13/M12 A3022 RMK AO2 SLP166
T01331122





000
SAUS46 KSTO 291153
MTRBLU
METAR KBLU 291152Z AUTO 05005KT 10SM CLR 13/M12 A3021 RMK AO2 SLP164
T01281122 10139 20128 56010





000
SAUS46 KSTO 291153
MTRBLU
METAR KBLU 291152Z AUTO 05005KT 10SM CLR 13/M12 A3021 RMK AO2 SLP164
T01281122 10139 20128 56010





000
SAUS46 KSTO 291053
MTRBLU
METAR KBLU 291052Z AUTO 05007KT 10SM CLR 13/M12 A3022 RMK AO2 SLP161
T01331122





000
SAUS46 KSTO 290953
MTRBLU
METAR KBLU 290952Z AUTO 05007KT 10SM CLR 13/M13 A3023 RMK AO2 SLP168
T01331128





000
SAUS46 KSTO 290853
MTRBLU
METAR KBLU 290852Z AUTO 05006KT 10SM CLR 14/M12 A3025 RMK AO2 SLP172
T01391122 58000





000
SAUS46 KSTO 290754
MTRBLU
METAR KBLU 290752Z AUTO 04006KT 10SM CLR 13/M12 A3025 RMK AO2 SLP175
T01331117 401940100





000
SAUS46 KSTO 290754
MTRBLU
METAR KBLU 290752Z AUTO 04006KT 10SM CLR 13/M12 A3025 RMK AO2 SLP175
T01331117 401940100





000
SAUS46 KSTO 290653
MTRBLU
METAR KBLU 290652Z AUTO 05007KT 10SM CLR 13/M12 A3025 RMK AO2 SLP176
T01331117





000
SAUS46 KSTO 290653
MTRBLU
METAR KBLU 290652Z AUTO 05007KT 10SM CLR 13/M12 A3025 RMK AO2 SLP176
T01331117





000
SAUS46 KSTO 290553
MTRBLU
METAR KBLU 290552Z AUTO 07006KT 10SM CLR 14/M11 A3025 RMK AO2 SLP179
T01391106 10189 20128 51002





000
SAUS46 KSTO 290553
MTRBLU
METAR KBLU 290552Z AUTO 07006KT 10SM CLR 14/M11 A3025 RMK AO2 SLP179
T01391106 10189 20128 51002





000
SAUS46 KSTO 290453
MTRBLU
METAR KBLU 290452Z AUTO 05005KT 10SM CLR 13/M03 A3025 RMK AO2 SLP182
T01331028





000
SAUS46 KSTO 290453
MTRBLU
METAR KBLU 290452Z AUTO 05005KT 10SM CLR 13/M03 A3025 RMK AO2 SLP182
T01331028





000
SAUS46 KSTO 290354
MTRBLU
METAR KBLU 290352Z AUTO 02003KT 10SM CLR 14/M01 A3025 RMK AO2 SLP185
T01391011





000
SAUS46 KSTO 290354
MTRBLU
METAR KBLU 290352Z AUTO 02003KT 10SM CLR 14/M01 A3025 RMK AO2 SLP185
T01391011





000
SAUS46 KSTO 290254
MTRBLU
METAR KBLU 290252Z AUTO 33004KT 10SM CLR 14/M01 A3024 RMK AO2 SLP188
T01391006 51003





000
SAUS46 KSTO 290153
MTRBLU
METAR KBLU 290152Z AUTO 29003KT 10SM CLR 17/M01 A3024 RMK AO2 SLP183
T01671006





000
SAUS46 KSTO 290153
MTRBLU
METAR KBLU 290152Z AUTO 29003KT 10SM CLR 17/M01 A3024 RMK AO2 SLP183
T01671006





000
SAUS46 KSTO 290054
MTRBLU
METAR KBLU 290052Z AUTO 30007KT 10SM CLR 17/01 A3024 RMK AO2 SLP180
T01720011





000
SAUS46 KSTO 290054
MTRBLU
METAR KBLU 290052Z AUTO 30007KT 10SM CLR 17/01 A3024 RMK AO2 SLP180
T01720011





000
SAUS46 KSTO 282354
MTRBLU
METAR KBLU 282352Z AUTO 28008KT 10SM CLR 18/00 A3023 RMK AO2 SLP173
T01830000 10194 20161 56012





000
SAUS46 KSTO 282354
MTRBLU
METAR KBLU 282352Z AUTO 28008KT 10SM CLR 18/00 A3023 RMK AO2 SLP173
T01830000 10194 20161 56012





000
SAUS46 KSTO 282253
MTRBLU
METAR KBLU 282252Z AUTO 27007G14KT 230V300 10SM CLR 19/M03 A3024 RMK
AO2 SLP175 T01941028





000
SAUS46 KSTO 282253
MTRBLU
METAR KBLU 282252Z AUTO 27007G14KT 230V300 10SM CLR 19/M03 A3024 RMK
AO2 SLP175 T01941028





000
SAUS46 KSTO 282154
MTRBLU
METAR KBLU 282152Z AUTO 26010KT 10SM CLR 19/M03 A3025 RMK AO2 SLP181
T01891028





000
SAUS46 KSTO 282154
MTRBLU
METAR KBLU 282152Z AUTO 26010KT 10SM CLR 19/M03 A3025 RMK AO2 SLP181
T01891028





000
SAUS46 KSTO 282054
MTRBLU
METAR KBLU 282052Z AUTO VRB03KT 10SM CLR 18/M02 A3027 RMK AO2 SLP187
T01831022 58009





000
SAUS46 KSTO 281954
MTRBLU
METAR KBLU 281952Z AUTO 30006KT 10SM CLR 18/M06 A3029 RMK AO2 SLP193
T01831056





000
SAUS46 KSTO 281954
MTRBLU
METAR KBLU 281952Z AUTO 30006KT 10SM CLR 18/M06 A3029 RMK AO2 SLP193
T01831056





000
SAUS46 KSTO 281854
MTRBLU
METAR KBLU 281852Z AUTO 23006KT 10SM CLR 17/M04 A3030 RMK AO2 SLP200
T01721039





000
SAUS46 KSTO 281854
MTRBLU
METAR KBLU 281852Z AUTO 23006KT 10SM CLR 17/M04 A3030 RMK AO2 SLP200
T01721039





000
SAUS46 KSTO 281754
MTRBLU
METAR KBLU 281752Z AUTO VRB04KT 10SM CLR 16/M05 A3030 RMK AO2 SLP204
T01611050 10161 20100 51008





000
SAUS46 KSTO 281754
MTRBLU
METAR KBLU 281752Z AUTO VRB04KT 10SM CLR 16/M05 A3030 RMK AO2 SLP204
T01611050 10161 20100 51008





000
SAUS46 KSTO 281654
MTRBLU
METAR KBLU 281652Z AUTO 10SM CLR 16/M04 A3030 RMK AO2 SLP202
T01561039





000
SAUS46 KSTO 281654
MTRBLU
METAR KBLU 281652Z AUTO 10SM CLR 16/M04 A3030 RMK AO2 SLP202
T01561039





000
SAUS46 KSTO 281553
MTRBLU
METAR KBLU 281552Z AUTO 00000KT 10SM CLR 14/M05 A3028 RMK AO2 SLP201
T01391050





000
SAUS46 KSTO 281453
MTRBLU
METAR KBLU 281452Z AUTO 07003KT 10SM CLR 12/M07 A3028 RMK AO2 SLP200
T01171067 51006





000
SAUS46 KSTO 281453
MTRBLU
METAR KBLU 281452Z AUTO 07003KT 10SM CLR 12/M07 A3028 RMK AO2 SLP200
T01171067 51006





000
SAUS46 KSTO 281353
MTRBLU
METAR KBLU 281352Z AUTO 05005KT 10SM CLR 11/M06 A3027 RMK AO2 SLP198
T01061061





000
SAUS46 KSTO 281353
MTRBLU
METAR KBLU 281352Z AUTO 05005KT 10SM CLR 11/M06 A3027 RMK AO2 SLP198
T01061061





000
SAUS46 KSTO 281254
MTRBLU
METAR KBLU 281252Z AUTO 05005KT 10SM CLR 11/M05 A3027 RMK AO2 SLP192
T01061050





000
SAUS46 KSTO 281254
MTRBLU
METAR KBLU 281252Z AUTO 05005KT 10SM CLR 11/M05 A3027 RMK AO2 SLP192
T01061050





000
SAUS46 KSTO 281153
MTRBLU
METAR KBLU 281152Z AUTO 08003KT 10SM CLR 11/M04 A3026 RMK AO2 SLP185
T01111044 10117 20106 55004





000
SAUS46 KSTO 281153
MTRBLU
METAR KBLU 281152Z AUTO 08003KT 10SM CLR 11/M04 A3026 RMK AO2 SLP185
T01111044 10117 20106 55004





000
SAUS46 KSTO 281054
MTRBLU
METAR KBLU 281052Z AUTO 10003KT 10SM CLR 11/M03 A3026 RMK AO2 SLP184
T01061033





000
SAUS46 KSTO 281054
MTRBLU
METAR KBLU 281052Z AUTO 10003KT 10SM CLR 11/M03 A3026 RMK AO2 SLP184
T01061033





000
SAUS46 KSTO 280953
MTRBLU
METAR KBLU 280952Z AUTO 14005KT 10SM CLR 11/M02 A3026 RMK AO2 SLP182
T01111017





000
SAUS46 KSTO 280853
MTRBLU
METAR KBLU 280852Z AUTO 14005KT 10SM CLR 12/00 A3027 RMK AO2 SLP186
T01170000 55001





000
SAUS46 KSTO 280853
MTRBLU
METAR KBLU 280852Z AUTO 14005KT 10SM CLR 12/00 A3027 RMK AO2 SLP186
T01170000 55001





000
SAUS46 KSTO 280754
MTRBLU
METAR KBLU 280752Z AUTO 15005KT 10SM CLR 12/01 A3027 RMK AO2 SLP184
T01170011 401940111





000
SAUS46 KSTO 280754
MTRBLU
METAR KBLU 280752Z AUTO 15005KT 10SM CLR 12/01 A3027 RMK AO2 SLP184
T01170011 401940111





000
SAUS46 KSTO 280654
MTRBLU
METAR KBLU 280652Z AUTO 14005KT 10SM CLR 12/02 A3026 RMK AO2 SLP184
T01170017





000
SAUS46 KSTO 280553
MTRBLU
METAR KBLU 280552Z AUTO 12004KT 10SM CLR 11/04 A3027 RMK AO2 SLP193
T01110039 10178 20111 51005





000
SAUS46 KSTO 280553
MTRBLU
METAR KBLU 280552Z AUTO 12004KT 10SM CLR 11/04 A3027 RMK AO2 SLP193
T01110039 10178 20111 51005





000
SAUS46 KSTO 280453
MTRBLU
METAR KBLU 280452Z AUTO 15004KT 10SM CLR 12/04 A3027 RMK AO2 SLP190
T01170039





000
SAUS46 KSTO 280353
MTRBLU
METAR KBLU 280352Z AUTO 16005KT 10SM CLR 12/04 A3026 RMK AO2 SLP189
T01220044





000
SAUS46 KSTO 280254
MTRBLU
METAR KBLU 280252Z AUTO 20004KT 10SM CLR 13/04 A3026 RMK AO2 SLP190
T01330044 55002





000
SAUS46 KSTO 280254
MTRBLU
METAR KBLU 280252Z AUTO 20004KT 10SM CLR 13/04 A3026 RMK AO2 SLP190
T01330044 55002





000
SAUS46 KSTO 280153
MTRBLU
METAR KBLU 280152Z AUTO 19005KT 10SM CLR 15/03 A3025 RMK AO2 SLP186
T01500033





000
SAUS46 KSTO 280054
MTRBLU
METAR KBLU 280052Z AUTO 21006G14KT 10SM CLR 17/01 A3025 RMK AO2
SLP179 T01670011





000
SAUS46 KSTO 272354
MTRBLU
METAR KBLU 272352Z AUTO 19010KT 170V230 10SM CLR 18/01 A3026 RMK AO2
SLP180 T01780006 10194 20167 56009





000
SAUS46 KSTO 272254
MTRBLU
METAR KBLU 272252Z AUTO 21011G15KT 10SM CLR 18/M02 A3026 RMK AO2
SLP178 T01831017





000
SAUS46 KSTO 272153
MTRBLU
METAR KBLU 272152Z AUTO 19010G17KT 10SM CLR 19/M02 A3028 RMK AO2
SLP177 T01891022





000
SAUS46 KSTO 272054
MTRBLU
METAR KBLU 272052Z AUTO 18015G21KT 10SM CLR 18/M02 A3029 RMK AO2
SLP188 T01831017 58007





000
SAUS46 KSTO 272054
MTRBLU
METAR KBLU 272052Z AUTO 18015G21KT 10SM CLR 18/M02 A3029 RMK AO2
SLP188 T01831017 58007





000
SAUS46 KSTO 271953
MTRBLU
METAR KBLU 271952Z AUTO 18010KT 10SM CLR 18/M02 A3031 RMK AO2 SLP194
T01831022





000
SAUS46 KSTO 271953
MTRBLU
METAR KBLU 271952Z AUTO 18010KT 10SM CLR 18/M02 A3031 RMK AO2 SLP194
T01831022





000
SAUS46 KSTO 271854
MTRBLU
METAR KBLU 271852Z AUTO 16009KT 10SM CLR 18/M02 A3032 RMK AO2 SLP196
T01781022





000
SAUS46 KSTO 271854
MTRBLU
METAR KBLU 271852Z AUTO 16009KT 10SM CLR 18/M02 A3032 RMK AO2 SLP196
T01781022





000
SAUS46 KSTO 271753
MTRBLU
METAR KBLU 271752Z AUTO VRB06KT 10SM CLR 17/M03 A3032 RMK AO2 SLP200
T01671028 10172 20122 51007





000
SAUS46 KSTO 271753
MTRBLU
METAR KBLU 271752Z AUTO VRB06KT 10SM CLR 17/M03 A3032 RMK AO2 SLP200
T01671028 10172 20122 51007





000
SAUS46 KSTO 271653
MTRBLU
METAR KBLU 271652Z AUTO 16006KT 10SM CLR 17/M04 A3031 RMK AO2 SLP198
T01671044





000
SAUS46 KSTO 271653
MTRBLU
METAR KBLU 271652Z AUTO 16006KT 10SM CLR 17/M04 A3031 RMK AO2 SLP198
T01671044





000
SAUS46 KSTO 271553
MTRBLU
METAR KBLU 271552Z AUTO 00000KT 10SM CLR 16/M02 A3030 RMK AO2 SLP196
T01561022





000
SAUS46 KSTO 271453
MTRBLU
METAR KBLU 271452Z AUTO 10003KT 10SM CLR 13/M03 A3029 RMK AO2 SLP197
T01331033 53003





000
SAUS46 KSTO 271353
MTRBLU
METAR KBLU 271352Z AUTO 08003KT 10SM CLR 13/M06 A3028 RMK AO2 SLP194
T01281056





000
SAUS46 KSTO 271253
MTRBLU
METAR KBLU 271252Z AUTO 10003KT 10SM CLR 13/M07 A3028 RMK AO2 SLP187
T01281067





000
SAUS46 KSTO 271153
MTRBLU
METAR KBLU 271152Z AUTO 14003KT 10SM CLR 13/M04 A3028 RMK AO2 SLP185
T01331044 10150 20128 56006





000
SAUS46 KSTO 271153
MTRBLU
METAR KBLU 271152Z AUTO 14003KT 10SM CLR 13/M04 A3028 RMK AO2 SLP185
T01331044 10150 20128 56006





000
SAUS46 KSTO 271053
MTRBLU
METAR KBLU 271052Z AUTO 18006KT 10SM CLR 14/M03 A3029 RMK AO2 SLP185
T01391033





000
SAUS46 KSTO 271053
MTRBLU
METAR KBLU 271052Z AUTO 18006KT 10SM CLR 14/M03 A3029 RMK AO2 SLP185
T01391033





    US Dept of Commerce
    National Oceanic and Atmospheric Administration
    National Weather Service
    1325 East West Highway
    Silver Spring, MD 20910
    Page Author: NWS Internet Services Team
Disclaimer
Information Quality
Credits
Glossary
Privacy Policy
Freedom of Information Act (FOIA)
About Us
Career Opportunities